Airfield :
LOGIN :

Register | Disclaimer

   EN    FR    IT 

 










Legend :    VFR   Marginal VFR   IFR   Intensive IFR   Very Intensive IFR
Visi :
Ceiling :
>= 8 km
>= 3000ft
5 to 8 km
1000 to 3000 ft
1500m to 5 km
500 to 1000 ft
800 to 1500m
200 to 500 ft
< 800m
< 200 ft
Symbols :   Thunderstorms  Fog  Heavy snow  Heavy precipitations  Wind > 20 kt
SIGMETs :     Misc.  Thunderstorms  Icing  Turbulence  Mountain Waves  Volcanic Ashes







- Airport Elevation : 2595 ft
- IATA code : SLM


LESA - Salamanca Matacan

CURRENT METAR :
  • 112230Z AUTO VRB01KT 9000 NCD 00/M01 Q1023

EXPIRED METARs :
  • 112200Z AUTO 00000KT 9000 NCD 01/00 Q1024
  • 112130Z AUTO 00000KT 9000 NCD 01/00 Q1024
  • 112100Z AUTO VRB02KT CAVOK 02/00 Q1023
  • 112030Z AUTO 00000KT 9999 NCD 04/02 Q1024
  • 112000Z AUTO 00000KT CAVOK 03/01 Q1024

TAF TAF LESA
Valid from the 11 at 18:00 until the 12 at 18:00 UTC


111700Z 1118/1218 VRB04KT CAVOK TX11/1214Z TNM01/1205Z
PROB40
TEMPO 1202/1212 3000 BR OVC006
PROB30
TEMPO 1206/1210 0200 FG OVC002
No reported NOTAMs for that airfield.



MET'MAP, your aeronautical weather chart ! - Copyright ORBIFLY December 2007 - Disclaimer

ORBIFLY MET'MAP TEAM :

Programming & Development : Alexandra Zaïnal
Concept & Development : Baudouin d'Aumeries
Co-Development & Prog : Marc-Olivier Méhu
Technical & hardware support : Manuel Goepfert

Contact : metmap@orbifly.com




SOURCES & CREDITS :

   NOAA